createdAt,value
2019-03-21T00:02:00.741Z,5.65
2019-03-21T00:04:33.000Z,5.53
2019-03-21T00:07:03.884Z,5.46
2019-03-21T00:09:37.280Z,5.39
2019-03-21T00:12:09.288Z,5.29
2019-03-21T00:15:01.683Z,5.20
2019-03-21T00:17:38.480Z,5.13
2019-03-21T00:20:12.118Z,5.06
2019-03-21T00:22:43.962Z,5.03
2019-03-21T00:25:17.298Z,4.99
2019-03-21T00:27:47.735Z,4.93
2019-03-21T00:30:20.919Z,4.88
2019-03-21T00:32:51.769Z,4.84
2019-03-21T00:35:22.907Z,4.79
2019-03-21T00:37:54.356Z,4.74
2019-03-21T00:40:30.715Z,4.72
2019-03-21T00:43:03.402Z,4.68
2019-03-21T00:45:33.920Z,4.65
2019-03-21T00:48:06.649Z,4.62
2019-03-21T00:50:37.126Z,4.57
2019-03-21T00:53:08.674Z,4.57
2019-03-21T00:55:42.088Z,4.51
2019-03-21T00:58:12.585Z,4.50
2019-03-21T01:00:46.404Z,4.49
2019-03-21T01:03:18.674Z,4.48
2019-03-21T01:05:49.406Z,4.46
2019-03-21T01:08:20.239Z,4.44
2019-03-21T01:10:53.230Z,4.41
2019-03-21T01:13:26.316Z,4.36
2019-03-21T01:15:56.947Z,4.30
2019-03-21T01:18:27.879Z,4.22
2019-03-21T01:20:58.510Z,4.23
2019-03-21T01:23:29.794Z,4.18
2019-03-21T01:26:03.560Z,4.18
2019-03-21T01:28:34.426Z,4.13
2019-03-21T01:31:05.157Z,4.07
2019-03-21T01:33:35.759Z,4.01
2019-03-21T01:36:08.231Z,3.98
2019-03-21T01:38:38.441Z,3.96
2019-03-21T01:41:16.866Z,3.95
2019-03-21T01:43:47.289Z,3.95
2019-03-21T01:46:22.940Z,3.92
2019-03-21T01:48:53.876Z,3.84
2019-03-21T01:51:24.718Z,3.76
2019-03-21T01:53:56.260Z,3.72
2019-03-21T01:56:28.530Z,3.67
2019-03-21T01:58:58.742Z,3.62
2019-03-21T02:01:29.381Z,3.56
2019-03-21T02:04:01.136Z,3.51
2019-03-21T02:06:33.405Z,3.42
2019-03-21T02:09:06.586Z,3.41
2019-03-21T02:11:38.775Z,3.39
2019-03-21T02:14:09.186Z,3.35
2019-03-21T02:16:40.538Z,3.27
2019-03-21T02:19:11.153Z,3.27
2019-03-21T02:21:41.854Z,3.30
2019-03-21T02:24:13.536Z,3.26
2019-03-21T02:26:47.397Z,3.22
2019-03-21T02:29:17.893Z,3.13
2019-03-21T02:31:48.613Z,3.11
2019-03-21T02:34:19.246Z,3.09
2019-03-21T02:36:49.875Z,3.06
2019-03-21T02:39:20.615Z,3.08
2019-03-21T02:41:51.441Z,3.02
2019-03-21T02:44:22.287Z,2.97
2019-03-21T02:46:54.066Z,2.98
2019-03-21T02:49:26.002Z,2.93
2019-03-21T02:51:56.620Z,2.90
2019-03-21T02:54:27.356Z,2.83
2019-03-21T02:56:58.598Z,2.75
2019-03-21T02:59:29.140Z,2.70
2019-03-21T03:01:59.859Z,2.67
2019-03-21T03:04:30.594Z,2.65
2019-03-21T03:07:01.442Z,2.59
2019-03-21T03:09:32.880Z,2.56
2019-03-21T03:12:03.505Z,2.59
2019-03-21T03:14:34.238Z,2.59
2019-03-21T03:17:04.972Z,2.53
2019-03-21T03:19:35.710Z,2.48
2019-03-21T03:22:06.027Z,2.43
2019-03-21T03:24:36.555Z,2.41
2019-03-21T03:27:06.987Z,2.39
2019-03-21T03:29:38.059Z,2.35
2019-03-21T03:32:08.930Z,2.37
2019-03-21T03:34:39.598Z,2.32
2019-03-21T03:37:10.120Z,2.31
2019-03-21T03:39:41.578Z,2.30
2019-03-21T03:42:12.094Z,2.26
2019-03-21T03:44:44.075Z,2.23
2019-03-21T03:47:14.374Z,2.20
2019-03-21T03:49:45.211Z,2.20
2019-03-21T03:52:16.865Z,2.17
2019-03-21T03:54:47.289Z,2.17
2019-03-21T03:57:18.627Z,2.14
2019-03-21T03:59:49.160Z,2.12
2019-03-21T04:02:20.099Z,2.16
2019-03-21T04:04:51.758Z,2.20
2019-03-21T04:07:22.489Z,2.23
2019-03-21T04:09:55.984Z,2.23
2019-03-21T04:12:28.362Z,2.25
2019-03-21T04:14:58.789Z,2.25
2019-03-21T04:17:30.232Z,2.20
2019-03-21T04:20:00.570Z,2.17
2019-03-21T04:22:31.178Z,2.12
2019-03-21T04:25:04.784Z,2.09
2019-03-21T04:27:35.417Z,2.08
2019-03-21T04:30:09.129Z,2.09
2019-03-21T04:32:41.076Z,2.16
2019-03-21T04:35:13.356Z,2.18
2019-03-21T04:37:44.694Z,2.22
2019-03-21T04:40:17.195Z,2.28
2019-03-21T04:42:47.506Z,2.31
2019-03-21T04:45:23.136Z,2.30
2019-03-21T04:47:53.563Z,2.34
2019-03-21T04:50:35.353Z,2.44
2019-03-21T04:53:06.094Z,2.47
2019-03-21T04:55:37.538Z,2.54
2019-03-21T04:58:08.473Z,2.61
2019-03-21T05:00:43.559Z,2.72
2019-03-21T05:03:16.591Z,2.73
2019-03-21T05:05:47.331Z,2.72
2019-03-21T05:08:18.712Z,2.81
2019-03-21T05:10:50.534Z,2.88
2019-03-21T05:13:21.366Z,3.02
2019-03-21T05:15:53.386Z,3.08
2019-03-21T05:18:32.456Z,3.15
2019-03-21T05:21:04.809Z,3.18
2019-03-21T05:23:35.252Z,3.27
2019-03-21T05:26:07.935Z,3.36
2019-03-21T05:28:38.869Z,3.39
2019-03-21T05:31:28.449Z,3.41
2019-03-21T05:33:58.820Z,3.32
2019-03-21T05:36:29.702Z,3.48
2019-03-21T05:39:00.544Z,3.60
2019-03-21T05:41:32.705Z,3.65
2019-03-21T05:44:27.240Z,3.66
2019-03-21T05:46:58.171Z,3.73
2019-03-21T05:49:28.674Z,3.86
2019-03-21T05:52:00.311Z,3.97
2019-03-21T05:54:30.634Z,4.01
2019-03-21T05:57:01.152Z,4.19
2019-03-21T05:59:31.648Z,4.29
2019-03-21T06:02:03.938Z,4.49
2019-03-21T06:04:34.427Z,4.28
2019-03-21T06:07:14.230Z,4.79
2019-03-21T06:09:45.580Z,4.73
2019-03-21T06:12:16.209Z,4.81
2019-03-21T06:14:52.986Z,4.76
2019-03-21T06:17:23.720Z,4.87
2019-03-21T06:20:21.823Z,5.04
2019-03-21T06:22:56.416Z,5.04
2019-03-21T06:25:47.723Z,5.22
2019-03-21T06:28:18.311Z,5.32
2019-03-21T06:30:49.802Z,5.36
2019-03-21T06:33:20.234Z,5.50
2019-03-21T06:35:54.433Z,5.57
2019-03-21T06:38:24.970Z,5.97
2019-03-21T06:40:56.523Z,6.27
2019-03-21T06:43:28.677Z,6.47
2019-03-21T06:46:00.899Z,6.54
2019-03-21T06:48:32.304Z,6.60
2019-03-21T06:51:02.732Z,6.50
2019-03-21T06:53:34.178Z,6.59
2019-03-21T06:56:04.661Z,6.69
2019-03-21T06:58:35.444Z,6.91
2019-03-21T07:01:06.318Z,6.99
2019-03-21T07:03:37.578Z,7.30
2019-03-21T07:06:08.354Z,7.61
2019-03-21T07:08:39.906Z,7.70
2019-03-21T07:11:10.779Z,7.83
2019-03-21T07:13:41.439Z,7.74
2019-03-21T07:16:12.202Z,8.08
2019-03-21T07:18:43.387Z,8.41
2019-03-21T07:21:13.777Z,8.31
2019-03-21T07:23:44.349Z,8.27
2019-03-21T07:26:14.831Z,8.47
2019-03-21T07:28:46.997Z,8.44
2019-03-21T07:31:17.729Z,8.45
2019-03-21T07:33:48.152Z,8.83
2019-03-21T07:36:18.887Z,9.16
2019-03-21T07:38:49.618Z,9.26
2019-03-21T07:41:21.781Z,9.56
2019-03-21T07:43:52.114Z,9.87
2019-03-21T07:46:22.883Z,9.92
2019-03-21T07:48:53.477Z,10.16
2019-03-21T07:51:24.510Z,10.10
2019-03-21T07:53:55.249Z,9.53
2019-03-21T07:56:25.705Z,9.69
2019-03-21T07:58:57.826Z,9.56
2019-03-21T08:01:28.257Z,9.89
2019-03-21T08:03:58.795Z,10.22
2019-03-21T08:06:30.189Z,10.42
2019-03-21T08:12:41.504Z,10.61
2019-03-21T08:15:16.145Z,10.48
2019-03-21T08:17:49.729Z,10.30
2019-03-21T08:20:21.183Z,11.19
2019-03-21T08:22:52.419Z,11.40
2019-03-21T08:25:24.180Z,11.84
2019-03-21T08:27:55.315Z,11.99
2019-03-21T08:30:29.233Z,11.84
2019-03-21T08:32:59.467Z,11.39
2019-03-21T08:35:32.173Z,11.32
2019-03-21T08:38:04.502Z,11.57
2019-03-21T08:40:35.701Z,11.60
2019-03-21T08:43:06.269Z,12.07
2019-03-21T08:45:37.106Z,12.40
2019-03-21T08:48:07.338Z,12.59
2019-03-21T08:50:40.306Z,12.82
2019-03-21T08:53:10.837Z,12.56
2019-03-21T08:55:42.284Z,12.33
2019-03-21T08:58:14.359Z,11.75
2019-03-21T09:00:47.069Z,12.09
2019-03-21T09:03:18.886Z,11.56
2019-03-21T09:05:49.418Z,11.99
2019-03-21T09:08:20.046Z,11.51
2019-03-21T09:10:51.497Z,11.99
2019-03-21T09:13:23.087Z,12.42
2019-03-21T09:15:53.886Z,13.20
2019-03-21T09:18:25.023Z,13.46
2019-03-21T09:20:55.611Z,13.34
2019-03-21T09:23:27.367Z,12.79
2019-03-21T09:25:58.251Z,12.32
2019-03-21T09:28:30.617Z,12.33
2019-03-21T09:31:01.450Z,12.24
2019-03-21T09:33:33.122Z,11.84
2019-03-21T09:36:03.636Z,12.18
2019-03-21T09:38:36.317Z,12.10
2019-03-21T09:41:08.370Z,12.43
2019-03-21T09:43:39.701Z,12.44
2019-03-21T09:46:14.547Z,12.35
2019-03-21T09:48:45.300Z,12.99
2019-03-21T09:51:16.530Z,13.19
2019-03-21T09:53:48.395Z,13.90
2019-03-21T09:56:23.876Z,14.03
2019-03-21T09:58:55.951Z,13.78
2019-03-21T10:01:27.150Z,13.89
2019-03-21T10:03:59.651Z,14.06
2019-03-21T10:06:31.075Z,15.01
2019-03-21T10:24:18.715Z,13.04
2019-03-21T10:26:49.730Z,13.12
2019-03-21T10:29:25.773Z,13.12
2019-03-21T10:31:58.580Z,13.10
2019-03-21T10:34:30.533Z,14.43
2019-03-21T10:37:01.269Z,13.50
2019-03-21T10:39:34.987Z,13.97
2019-03-21T10:42:05.645Z,14.17
2019-03-21T10:44:38.047Z,14.64
2019-03-21T10:47:11.229Z,13.47
2019-03-21T10:49:43.639Z,13.91
2019-03-21T10:52:14.224Z,13.20
2019-03-21T10:54:45.510Z,14.28
2019-03-21T10:57:18.122Z,14.36
2019-03-21T10:59:48.813Z,15.59
2019-03-21T11:02:19.182Z,16.27
2019-03-21T11:04:50.177Z,16.20
2019-03-21T11:07:21.331Z,14.85
2019-03-21T11:09:52.598Z,13.81
2019-03-21T11:12:23.432Z,15.10
2019-03-21T11:14:54.140Z,17.40
2019-03-21T11:17:26.401Z,17.91
2019-03-21T11:19:57.136Z,16.41
2019-03-21T11:22:27.764Z,13.78
2019-03-21T11:24:58.603Z,13.84
2019-03-21T11:27:30.158Z,13.91
2019-03-21T11:30:02.319Z,14.96
2019-03-21T11:32:32.694Z,14.96
2019-03-21T11:35:08.170Z,12.67
2019-03-21T11:37:40.660Z,12.60
2019-03-21T11:40:11.633Z,12.09
2019-03-21T11:42:42.241Z,11.60
2019-03-21T11:45:15.754Z,12.04
2019-03-21T11:47:46.678Z,11.69
2019-03-21T11:50:17.915Z,12.23
2019-03-21T11:52:49.054Z,12.40
2019-03-21T11:55:20.113Z,12.86
2019-03-21T11:57:52.349Z,13.98
2019-03-21T12:00:23.192Z,14.86
2019-03-21T12:02:54.643Z,15.96
2019-03-21T12:05:25.823Z,16.73
2019-03-21T12:07:56.487Z,20.66
2019-03-21T12:10:27.282Z,19.95
2019-03-21T12:13:00.440Z,18.01
2019-03-21T12:15:31.360Z,19.56
2019-03-21T12:18:03.303Z,19.10
2019-03-21T12:20:34.684Z,19.56
2019-03-21T12:23:05.315Z,18.11
2019-03-21T12:25:36.558Z,19.47
2019-03-21T12:28:07.911Z,18.49
2019-03-21T12:30:39.628Z,18.01
2019-03-21T12:33:09.990Z,16.91
2019-03-21T12:35:41.547Z,16.56
2019-03-21T12:38:12.103Z,16.28
2019-03-21T12:40:43.511Z,14.64
2019-03-21T12:43:14.246Z,13.98
2019-03-21T12:45:45.097Z,13.39
2019-03-21T12:48:15.928Z,13.67
2019-03-21T12:50:48.389Z,14.54
2019-03-21T12:53:19.225Z,15.39
2019-03-21T12:55:51.806Z,16.60
2019-03-21T12:58:22.633Z,14.79
2019-03-21T13:00:55.358Z,14.36
2019-03-21T13:03:26.772Z,13.28
2019-03-21T13:05:57.279Z,12.59
2019-03-21T13:08:33.723Z,11.75
2019-03-21T13:11:01.236Z,11.29
2019-03-21T13:13:31.622Z,11.40
2019-03-21T13:16:02.266Z,11.31
2019-03-21T13:18:33.203Z,11.31
2019-03-21T13:21:03.940Z,11.00
2019-03-21T13:23:34.573Z,10.84
2019-03-21T13:26:05.301Z,10.91
2019-03-21T13:28:36.138Z,10.70
2019-03-21T13:31:07.772Z,10.97
2019-03-21T13:33:38.526Z,10.87
2019-03-21T13:36:09.165Z,10.92
2019-03-21T13:38:39.992Z,11.06
2019-03-21T13:41:10.726Z,11.00
2019-03-21T13:43:41.474Z,10.90
2019-03-21T13:46:12.288Z,10.81
2019-03-21T13:48:43.227Z,10.76
2019-03-21T13:51:16.311Z,10.82
2019-03-21T13:53:47.981Z,10.73
2019-03-21T13:56:18.600Z,10.79
2019-03-21T13:58:49.473Z,10.59
2019-03-21T14:01:21.770Z,10.45
2019-03-21T14:03:54.694Z,10.43
2019-03-21T14:06:25.931Z,10.34
2019-03-21T14:08:56.793Z,10.41
2019-03-21T14:11:29.663Z,10.38
2019-03-21T14:14:00.542Z,10.31
2019-03-21T14:16:31.775Z,10.45
2019-03-21T14:19:03.261Z,10.48
2019-03-21T14:21:33.637Z,10.31
2019-03-21T14:24:04.333Z,10.40
2019-03-21T14:26:34.971Z,10.38
2019-03-21T14:29:12.528Z,10.36
2019-03-21T14:31:41.050Z,10.78
2019-03-21T14:34:11.875Z,10.67
2019-03-21T14:36:43.222Z,10.45
2019-03-21T14:39:13.544Z,10.22
2019-03-21T14:41:44.281Z,10.00
2019-03-21T14:44:15.634Z,9.99
2019-03-21T14:46:46.158Z,10.17
2019-03-21T14:49:17.093Z,10.09
2019-03-21T14:51:48.742Z,10.00
2019-03-21T14:54:19.478Z,10.04
2019-03-21T14:56:51.845Z,9.87
2019-03-21T14:59:22.478Z,10.00
2019-03-21T15:01:53.205Z,9.82
2019-03-21T15:04:24.656Z,9.75
2019-03-21T15:06:55.255Z,9.67
2019-03-21T15:09:26.850Z,9.78
2019-03-21T15:11:57.752Z,9.69
2019-03-21T15:14:31.935Z,9.62
2019-03-21T15:17:01.936Z,9.57
2019-03-21T15:19:32.482Z,9.49
2019-03-21T15:22:03.180Z,9.57
2019-03-21T15:24:36.053Z,9.66
2019-03-21T15:27:06.848Z,9.49
2019-03-21T15:29:37.417Z,9.44
2019-03-21T15:32:10.394Z,9.41
2019-03-21T15:34:42.163Z,9.34
2019-03-21T15:37:14.125Z,9.30
2019-03-21T15:39:45.100Z,9.16
2019-03-21T15:42:15.781Z,9.07
2019-03-21T15:44:46.515Z,8.97
2019-03-21T15:47:17.156Z,8.90
2019-03-21T15:49:47.919Z,8.78
2019-03-21T15:52:18.722Z,8.71
2019-03-21T15:54:50.760Z,8.70
2019-03-21T15:57:21.509Z,8.63
2019-03-21T15:59:52.586Z,8.64
2019-03-21T16:02:23.893Z,8.62
2019-03-21T16:04:54.934Z,8.69
2019-03-21T16:07:25.743Z,8.67
2019-03-21T16:09:56.362Z,8.65
2019-03-21T16:12:27.743Z,8.63
2019-03-21T16:14:58.478Z,8.58
2019-03-21T16:17:29.425Z,8.54
2019-03-21T16:20:00.046Z,8.53
2019-03-21T16:22:31.292Z,8.55
2019-03-21T16:25:03.455Z,8.53
2019-03-21T16:27:34.193Z,8.56
2019-03-21T16:30:07.500Z,8.51
2019-03-21T16:32:38.972Z,8.55
2019-03-21T16:35:09.354Z,8.49
2019-03-21T16:37:39.887Z,8.32
2019-03-21T16:40:13.318Z,8.23
2019-03-21T16:42:45.251Z,8.13
2019-03-21T16:45:17.068Z,8.05
2019-03-21T16:47:48.958Z,8.06
2019-03-21T16:50:20.921Z,8.01
2019-03-21T16:52:51.959Z,7.99
2019-03-21T16:55:24.338Z,7.96
2019-03-21T16:57:56.903Z,7.94
2019-03-21T17:00:27.542Z,7.89
2019-03-21T17:02:58.150Z,7.94
2019-03-21T17:05:29.823Z,7.91
2019-03-21T17:08:10.616Z,7.90
2019-03-21T17:10:33.332Z,7.84
2019-03-21T17:13:06.491Z,7.88
2019-03-21T17:15:38.313Z,7.81
2019-03-21T17:18:09.669Z,7.76
2019-03-21T17:20:41.012Z,7.75
2019-03-21T17:23:11.912Z,7.80
2019-03-21T17:25:42.954Z,7.84
2019-03-21T17:28:15.942Z,7.86
2019-03-21T17:30:46.462Z,7.82
2019-03-21T17:33:17.102Z,7.83
2019-03-21T17:35:48.542Z,7.75
2019-03-21T17:38:19.275Z,7.77
2019-03-21T17:40:50.524Z,7.57
2019-03-21T17:43:23.616Z,7.60
2019-03-21T17:45:56.708Z,7.56
2019-03-21T17:48:28.986Z,7.40
2019-03-21T17:50:59.268Z,7.36
2019-03-21T17:53:31.044Z,7.21
2019-03-21T17:56:01.701Z,7.02
2019-03-21T17:58:32.410Z,6.97
2019-03-21T18:01:03.304Z,6.85
2019-03-21T18:03:34.182Z,6.71
2019-03-21T18:06:04.921Z,6.64
2019-03-21T18:08:35.534Z,6.50
2019-03-21T18:11:06.279Z,6.48
2019-03-21T18:13:39.567Z,6.45
2019-03-21T18:16:10.508Z,6.45
2019-03-21T18:18:41.650Z,6.48
2019-03-21T18:21:12.391Z,6.52
2019-03-21T18:23:42.734Z,6.45
2019-03-21T18:26:13.741Z,6.42
2019-03-21T18:28:44.985Z,6.42
2019-03-21T18:31:15.411Z,6.39
2019-03-21T18:33:46.144Z,6.34
2019-03-21T18:36:16.674Z,6.32
2019-03-21T18:38:58.702Z,6.23
2019-03-21T18:41:21.108Z,6.19
2019-03-21T18:43:51.839Z,6.14
2019-03-21T18:46:22.433Z,6.11
2019-03-21T18:48:53.715Z,6.08
2019-03-21T18:51:24.651Z,6.07
2019-03-21T18:53:56.882Z,6.04
2019-03-21T18:56:27.299Z,6.01
2019-03-21T18:58:57.987Z,5.94
2019-03-21T19:01:29.114Z,5.90
2019-03-21T19:04:00.568Z,5.81
2019-03-21T19:06:31.298Z,5.71
2019-03-21T19:09:02.044Z,5.53
2019-03-21T19:11:32.623Z,5.45
2019-03-21T19:14:04.011Z,5.35
2019-03-21T19:16:34.334Z,5.28
2019-03-21T19:19:05.911Z,5.29
2019-03-21T19:21:36.417Z,5.25
2019-03-21T19:24:07.555Z,5.18
2019-03-21T19:26:38.699Z,5.16
2019-03-21T19:29:11.811Z,5.16
2019-03-21T19:31:42.906Z,5.13
2019-03-21T19:34:13.558Z,5.11
2019-03-21T19:36:44.634Z,5.18
2019-03-21T19:39:15.118Z,5.17
2019-03-21T19:41:48.306Z,5.10
2019-03-21T19:44:19.664Z,5.04
2019-03-21T19:46:50.493Z,4.95
2019-03-21T19:49:21.183Z,4.95
2019-03-21T19:51:52.070Z,5.02
2019-03-21T19:54:22.694Z,4.91
2019-03-21T19:56:54.261Z,4.90
2019-03-21T19:59:24.568Z,4.92
2019-03-21T20:01:55.299Z,4.93
2019-03-21T20:04:26.035Z,4.87
2019-03-21T20:06:58.166Z,4.87
2019-03-21T20:09:28.396Z,4.86
2019-03-21T20:11:59.065Z,4.82
2019-03-21T20:14:30.793Z,4.84
2019-03-21T20:17:01.744Z,4.88
2019-03-21T20:19:32.476Z,4.95
2019-03-21T20:22:03.215Z,4.92
2019-03-21T20:24:33.658Z,5.02
2019-03-21T20:27:04.467Z,5.08
2019-03-21T20:29:35.203Z,5.07
2019-03-21T20:32:07.471Z,5.09
2019-03-21T20:34:37.798Z,5.11
2019-03-21T20:37:08.420Z,5.12
2019-03-21T20:39:39.154Z,5.13
2019-03-21T20:42:09.849Z,5.13
2019-03-21T20:44:41.286Z,5.02
2019-03-21T20:47:12.503Z,4.90
2019-03-21T20:49:45.466Z,4.78
2019-03-21T20:52:16.199Z,4.64
2019-03-21T20:54:46.915Z,4.57
2019-03-21T20:57:18.464Z,4.52
2019-03-21T20:59:49.221Z,4.44
2019-03-21T21:02:20.049Z,4.45
2019-03-21T21:04:50.678Z,4.38
2019-03-21T21:07:21.413Z,4.35
2019-03-21T21:09:52.147Z,4.38
2019-03-21T21:12:23.387Z,4.33
2019-03-21T21:14:54.201Z,4.38
2019-03-21T21:17:26.088Z,4.37
2019-03-21T21:19:57.148Z,4.30
2019-03-21T21:22:28.474Z,4.27
2019-03-21T21:24:59.215Z,4.27
2019-03-21T21:27:30.527Z,4.29
2019-03-21T21:30:01.386Z,4.28
2019-03-21T21:32:33.140Z,4.34
2019-03-21T21:35:04.499Z,4.32
2019-03-21T21:37:34.912Z,4.35
2019-03-21T21:40:07.657Z,4.34
2019-03-21T21:42:38.769Z,4.35
2019-03-21T21:45:11.387Z,4.38
2019-03-21T21:47:41.835Z,4.32
2019-03-21T21:50:18.555Z,4.30
2019-03-21T21:52:51.141Z,4.27
2019-03-21T21:55:22.943Z,4.26
2019-03-21T21:57:53.267Z,4.25
2019-03-21T22:00:26.459Z,4.30
2019-03-21T22:02:57.189Z,4.40
2019-03-21T22:05:29.695Z,4.49
2019-03-21T22:08:01.072Z,4.55
2019-03-21T22:10:31.437Z,4.65
2019-03-21T22:13:02.570Z,4.68
2019-03-21T22:15:33.310Z,4.68
2019-03-21T22:18:04.038Z,4.63
2019-03-21T22:20:34.520Z,4.66
2019-03-21T22:23:05.406Z,4.60
2019-03-21T22:25:36.034Z,4.50
2019-03-21T22:28:10.017Z,4.44
2019-03-21T22:30:39.649Z,4.44
2019-03-21T22:33:10.623Z,4.42
2019-03-21T22:35:43.491Z,4.40
2019-03-21T22:38:15.538Z,4.36
2019-03-21T22:40:46.060Z,4.33
2019-03-21T22:43:16.692Z,4.34
2019-03-21T22:45:48.651Z,4.34
2019-03-21T22:48:18.863Z,4.34
2019-03-21T22:50:49.604Z,4.35
2019-03-21T22:53:20.336Z,4.40
2019-03-21T22:55:50.980Z,4.40
2019-03-21T22:58:31.363Z,4.41
2019-03-21T23:00:54.996Z,4.38
2019-03-21T23:03:25.522Z,4.37
2019-03-21T23:05:56.564Z,4.34
2019-03-21T23:08:28.006Z,4.37
2019-03-21T23:10:58.246Z,4.38
2019-03-21T23:13:29.275Z,4.33
2019-03-21T23:16:00.415Z,4.36
2019-03-21T23:18:32.375Z,4.37
2019-03-21T23:21:03.330Z,4.36
2019-03-21T23:23:33.940Z,4.37
2019-03-21T23:26:05.082Z,4.38
2019-03-21T23:28:36.435Z,4.40
2019-03-21T23:31:07.164Z,4.42
2019-03-21T23:33:38.205Z,4.38
2019-03-21T23:36:10.779Z,4.42
2019-03-21T23:38:41.271Z,4.43
2019-03-21T23:41:12.045Z,4.41
2019-03-21T23:43:44.004Z,4.39
2019-03-21T23:46:15.659Z,4.31
2019-03-21T23:48:46.062Z,4.21
2019-03-21T23:51:16.709Z,4.02
2019-03-21T23:53:48.465Z,3.95
2019-03-21T23:56:18.789Z,3.83
2019-03-21T23:58:49.522Z,3.82
